createdAt,value
2017-08-21T00:00:16.699Z,49
2017-08-21T00:01:18.829Z,49
2017-08-21T00:02:20.959Z,49.2
2017-08-21T00:03:23.086Z,49
2017-08-21T00:04:25.213Z,49.2
2017-08-21T00:05:26.992Z,48.9
2017-08-21T00:06:29.120Z,48.9
2017-08-21T00:07:31.247Z,49
2017-08-21T00:08:33.376Z,49.3
2017-08-21T00:09:34.815Z,49
2017-08-21T00:10:35.592Z,49.1
2017-08-21T00:11:37.384Z,49.1
2017-08-21T00:12:39.184Z,49.2
2017-08-21T00:13:41.311Z,49
2017-08-21T00:14:43.440Z,49
2017-08-21T00:15:44.900Z,48.9
2017-08-21T00:16:46.348Z,49
2017-08-21T00:17:47.794Z,49
2017-08-21T00:18:49.592Z,48.9
2017-08-21T00:19:51.722Z,48.9
2017-08-21T00:20:53.163Z,49
2017-08-21T00:21:55.293Z,49
2017-08-21T00:22:56.758Z,49
2017-08-21T00:23:58.552Z,49
2017-08-21T00:25:00.018Z,48.9
2017-08-21T00:26:02.145Z,49
2017-08-21T00:27:04.275Z,49.5
2017-08-21T00:28:05.741Z,48.9
2017-08-21T00:29:07.870Z,49
2017-08-21T00:30:10.000Z,49
2017-08-21T00:31:11.441Z,49
2017-08-21T00:32:12.888Z,49.1
2017-08-21T00:33:15.013Z,49
2017-08-21T00:34:17.141Z,49.1
2017-08-21T00:35:19.285Z,49.4
2017-08-21T00:36:21.082Z,49
2017-08-21T00:37:22.527Z,49.7
2017-08-21T00:38:24.659Z,49.2
2017-08-21T00:39:26.438Z,48.9
2017-08-21T00:40:28.569Z,49.1
2017-08-21T00:41:30.031Z,49.2
2017-08-21T00:42:32.159Z,48.8
2017-08-21T00:43:34.287Z,49.2
2017-08-21T00:44:36.061Z,49.2
2017-08-21T00:45:37.865Z,49.4
2017-08-21T00:46:39.996Z,49
2017-08-21T00:47:41.794Z,48.9
2017-08-21T00:48:43.590Z,49
2017-08-21T00:49:45.718Z,49.3
2017-08-21T00:50:47.845Z,49.2
2017-08-21T00:51:49.287Z,48.9
2017-08-21T00:52:51.064Z,49
2017-08-21T00:53:53.207Z,48.9
2017-08-21T00:54:54.656Z,49
2017-08-21T00:55:56.099Z,49.2
2017-08-21T00:56:57.563Z,49
2017-08-21T00:57:59.697Z,48.9
2017-08-21T00:59:01.519Z,49.6
2017-08-21T01:00:03.024Z,49.6
2017-08-21T01:01:04.821Z,49.3
2017-08-21T01:02:06.620Z,49
2017-08-21T01:03:08.748Z,49.2
2017-08-21T01:04:10.878Z,49
2017-08-21T01:05:12.655Z,48.9
2017-08-21T01:06:14.449Z,48.9
2017-08-21T01:07:15.915Z,49
2017-08-21T01:08:17.713Z,49.1
2017-08-21T01:09:19.196Z,49.1
2017-08-21T01:10:20.993Z,49.2
2017-08-21T01:11:23.126Z,49.1
2017-08-21T01:12:25.254Z,49.1
2017-08-21T01:13:27.383Z,49.3
2017-08-21T01:14:28.850Z,48.9
2017-08-21T01:15:30.627Z,48.9
2017-08-21T01:16:32.758Z,49.3
2017-08-21T01:17:34.886Z,49.2
2017-08-21T01:18:37.015Z,49.4
2017-08-21T01:19:38.814Z,49.4
2017-08-21T01:20:40.940Z,49.2
2017-08-21T01:21:42.410Z,49.1
2017-08-21T01:22:44.208Z,49.2
2017-08-21T01:23:46.335Z,49.5
2017-08-21T01:24:48.108Z,49.1
2017-08-21T01:25:49.572Z,49.4
2017-08-21T01:26:51.348Z,49.2
2017-08-21T01:27:53.478Z,49.3
2017-08-21T01:28:55.276Z,49.2
2017-08-21T01:29:57.406Z,49.4
2017-08-21T01:30:59.201Z,49.1
2017-08-21T01:32:01.000Z,49.4
2017-08-21T01:33:03.128Z,49.2
2017-08-21T01:34:05.327Z,49.4
2017-08-21T01:35:06.791Z,49.2
2017-08-21T01:36:08.930Z,49.2
2017-08-21T01:37:10.727Z,49.1
2017-08-21T01:38:12.176Z,49.1
2017-08-21T01:39:13.640Z,49.1
2017-08-21T01:40:15.436Z,49.1
2017-08-21T01:41:17.231Z,49.3
2017-08-21T01:42:18.698Z,49
2017-08-21T01:43:20.842Z,49.3
2017-08-21T01:44:22.617Z,49.3
2017-08-21T01:45:24.414Z,49.3
2017-08-21T01:46:26.214Z,49.3
2017-08-21T01:47:28.344Z,49
2017-08-21T01:48:30.122Z,49
2017-08-21T01:49:31.933Z,49
2017-08-21T01:50:33.393Z,49
2017-08-21T01:51:35.520Z,49.1
2017-08-21T01:52:37.316Z,49
2017-08-21T01:53:39.453Z,49
2017-08-21T01:54:41.223Z,49
2017-08-21T01:55:42.664Z,49.1
2017-08-21T01:56:44.121Z,49.1
2017-08-21T01:57:45.894Z,49.1
2017-08-21T01:58:47.341Z,49.1
2017-08-21T01:59:49.472Z,49
2017-08-21T02:00:51.601Z,49.1
2017-08-21T02:01:53.732Z,49
2017-08-21T02:02:55.885Z,49.1
2017-08-21T02:03:58.017Z,49.2
2017-08-21T02:05:00.146Z,49
2017-08-21T02:06:02.312Z,49.2
2017-08-21T02:07:03.457Z,49
2017-08-21T02:08:05.588Z,49
2017-08-21T02:09:07.750Z,49
2017-08-21T02:10:09.877Z,49.2
2017-08-21T02:11:11.342Z,49.3
2017-08-21T02:12:13.117Z,49.3
2017-08-21T02:13:14.583Z,49.3
2017-08-21T02:14:16.705Z,49.7
2017-08-21T02:15:18.505Z,49.3
2017-08-21T02:16:19.970Z,49
2017-08-21T02:17:21.769Z,49.2
2017-08-21T02:18:23.566Z,49
2017-08-21T02:19:25.365Z,49.1
2017-08-21T02:20:26.803Z,49
2017-08-21T02:21:28.930Z,49.7
2017-08-21T02:22:30.376Z,49
2017-08-21T02:23:31.822Z,49
2017-08-21T02:24:32.933Z,48.9
2017-08-21T02:25:34.398Z,49.6
2017-08-21T02:26:35.518Z,49.2
2017-08-21T02:27:36.966Z,49.3
2017-08-21T02:28:38.423Z,49.2
2017-08-21T02:29:40.552Z,49.6
2017-08-21T02:30:42.702Z,49
2017-08-21T02:31:44.130Z,49.9
2017-08-21T02:32:45.257Z,49
2017-08-21T02:33:46.713Z,49
2017-08-21T02:34:48.166Z,48.9
2017-08-21T02:35:50.321Z,49.9
2017-08-21T02:36:51.437Z,49
2017-08-21T02:37:53.233Z,49
2017-08-21T02:38:55.032Z,49.8
2017-08-21T02:39:57.162Z,49
2017-08-21T02:40:59.290Z,48.9
2017-08-21T02:42:01.087Z,49
2017-08-21T02:43:02.884Z,49.7
2017-08-21T02:44:05.017Z,49.6
2017-08-21T02:45:07.161Z,49.7
2017-08-21T02:46:08.603Z,49.3
2017-08-21T02:47:10.726Z,49.3
2017-08-21T02:48:12.856Z,49.3
2017-08-21T02:49:14.316Z,49.4
2017-08-21T02:50:16.470Z,49.7
2017-08-21T02:51:17.914Z,49.4
2017-08-21T02:52:19.712Z,49.4
2017-08-21T02:53:21.169Z,49.7
2017-08-21T02:54:23.297Z,49.4
2017-08-21T02:55:24.743Z,49.3
2017-08-21T02:56:26.540Z,49.6
2017-08-21T02:57:28.667Z,49.5
2017-08-21T02:58:30.828Z,49.4
2017-08-21T02:59:32.601Z,49.4
2017-08-21T03:00:34.069Z,49.4
2017-08-21T03:01:35.510Z,49.6
2017-08-21T03:02:36.952Z,49.7
2017-08-21T03:03:38.747Z,49.7
2017-08-21T03:04:40.214Z,49.4
2017-08-21T03:05:41.323Z,49.7
2017-08-21T03:06:42.772Z,49.6
2017-08-21T03:07:44.540Z,49.4
2017-08-21T03:08:45.649Z,49.4
2017-08-21T03:09:47.443Z,49.7
2017-08-21T03:10:48.888Z,49.6
2017-08-21T03:11:50.665Z,49.5
2017-08-21T03:12:52.810Z,49.5
2017-08-21T03:13:54.935Z,49.5
2017-08-21T03:14:56.736Z,49.5
2017-08-21T03:15:58.530Z,49.4
2017-08-21T03:16:59.979Z,49.4
2017-08-21T03:18:01.770Z,49.3
2017-08-21T03:19:03.899Z,49.5
2017-08-21T03:20:05.697Z,49.4
2017-08-21T03:21:07.492Z,49.4
2017-08-21T03:22:09.268Z,49.3
2017-08-21T03:23:11.064Z,49.3
2017-08-21T03:24:13.194Z,49.3
2017-08-21T03:25:14.659Z,49.6
2017-08-21T03:26:16.783Z,49.6
2017-08-21T03:27:18.578Z,49.2
2017-08-21T03:28:20.709Z,49.5
2017-08-21T03:29:22.837Z,49.2
2017-08-21T03:30:24.965Z,49.4
2017-08-21T03:31:26.744Z,49.4
2017-08-21T03:32:28.877Z,49.5
2017-08-21T03:33:30.671Z,49.6
2017-08-21T03:34:32.468Z,49.2
2017-08-21T03:35:34.613Z,49.1
2017-08-21T03:36:35.720Z,49.3
2017-08-21T03:37:37.175Z,49.6
2017-08-21T03:38:38.978Z,49.4
2017-08-21T03:39:41.106Z,49.5
2017-08-21T03:40:42.905Z,49.4
2017-08-21T03:41:44.698Z,49.3
2017-08-21T03:42:45.831Z,49.4
2017-08-21T03:43:47.273Z,49.2
2017-08-21T03:44:49.417Z,49.3
2017-08-21T03:45:50.866Z,49.5
2017-08-21T03:46:52.665Z,49.2
2017-08-21T03:47:54.155Z,49.2
2017-08-21T03:48:55.950Z,49.3
2017-08-21T03:49:57.748Z,49.2
2017-08-21T03:50:59.876Z,49.3
2017-08-21T03:52:02.005Z,49.2
2017-08-21T03:53:04.132Z,49.2
2017-08-21T03:54:05.697Z,49.2
2017-08-21T03:55:07.495Z,49.3
2017-08-21T03:56:09.628Z,49.3
2017-08-21T03:57:11.417Z,49.2
2017-08-21T03:58:12.546Z,49.3
2017-08-21T03:59:14.322Z,49.3
2017-08-21T04:00:16.120Z,49.4
2017-08-21T04:01:18.246Z,49.4
2017-08-21T04:02:19.705Z,49.3
2017-08-21T04:03:20.815Z,49.3
2017-08-21T04:04:22.950Z,49.5
2017-08-21T04:05:25.080Z,49.4
2017-08-21T04:06:25.859Z,49.3
2017-08-21T04:07:27.994Z,49.3
2017-08-21T04:08:30.127Z,49.4
2017-08-21T04:09:31.570Z,49.5
2017-08-21T04:10:33.369Z,49.4
2017-08-21T04:11:34.813Z,49.3
2017-08-21T04:12:36.257Z,49.4
2017-08-21T04:13:38.389Z,49.3
2017-08-21T04:14:40.518Z,49.4
2017-08-21T04:15:42.296Z,49.3
2017-08-21T04:16:43.766Z,49.4
2017-08-21T04:17:45.896Z,49.7
2017-08-21T04:18:47.030Z,49.7
2017-08-21T04:19:49.163Z,49.5
2017-08-21T04:20:50.940Z,49.5
2017-08-21T04:21:52.406Z,49.5
2017-08-21T04:22:54.204Z,49.6
2017-08-21T04:23:55.981Z,49.4
2017-08-21T04:24:57.114Z,49.6
2017-08-21T04:25:58.890Z,49.7
2017-08-21T04:27:01.020Z,49.3
2017-08-21T04:28:02.816Z,49.7
2017-08-21T04:29:04.592Z,49.7
2017-08-21T04:30:06.445Z,49.4
2017-08-21T04:31:07.558Z,49.7
2017-08-21T04:32:09.337Z,49.7
2017-08-21T04:33:11.466Z,49.5
2017-08-21T04:34:13.598Z,49.4
2017-08-21T04:35:15.780Z,49.6
2017-08-21T04:36:16.897Z,49.5
2017-08-21T04:37:18.707Z,49.5
2017-08-21T04:38:20.507Z,49.7
2017-08-21T04:39:22.300Z,49.5
2017-08-21T04:40:24.102Z,49.6
2017-08-21T04:41:25.922Z,49.8
2017-08-21T04:42:27.684Z,49.9
2017-08-21T04:43:29.815Z,49.5
2017-08-21T04:44:31.590Z,49.5
2017-08-21T04:45:33.039Z,49.7
2017-08-21T04:46:34.836Z,49.4
2017-08-21T04:47:36.970Z,49.5
2017-08-21T04:48:38.769Z,49.5
2017-08-21T04:49:40.224Z,49.7
2017-08-21T04:50:41.999Z,49.4
2017-08-21T04:51:43.775Z,49.6
2017-08-21T04:52:45.909Z,49.3
2017-08-21T04:53:47.355Z,49.3
2017-08-21T04:54:49.493Z,49.6
2017-08-21T04:55:51.617Z,49.3
2017-08-21T04:56:53.061Z,49.7
2017-08-21T04:57:54.863Z,49.5
2017-08-21T04:58:56.997Z,49.4
2017-08-21T04:59:58.799Z,49.5
2017-08-21T05:01:00.242Z,49.3
2017-08-21T05:02:01.353Z,49.4
2017-08-21T05:03:02.822Z,49.3
2017-08-21T05:04:04.289Z,49.2
2017-08-21T05:05:05.816Z,49.4
2017-08-21T05:06:07.260Z,49.4
2017-08-21T05:07:09.056Z,49.3
2017-08-21T05:08:10.505Z,49.3
2017-08-21T05:09:12.638Z,49.4
2017-08-21T05:10:14.102Z,49.3
2017-08-21T05:11:15.896Z,49.4
2017-08-21T05:12:18.034Z,49.3
2017-08-21T05:13:20.165Z,49.4
2017-08-21T05:14:21.610Z,49.3
2017-08-21T05:15:22.725Z,49.3
2017-08-21T05:16:24.191Z,49.3
2017-08-21T05:17:25.989Z,49.2
2017-08-21T05:18:28.119Z,49.3
2017-08-21T05:19:30.251Z,49.3
2017-08-21T05:20:31.722Z,49.4
2017-08-21T05:21:33.521Z,49.3
2017-08-21T05:22:34.996Z,49.2
2017-08-21T05:23:36.458Z,49.3
2017-08-21T05:24:38.235Z,49.2
2017-08-21T05:25:39.693Z,49.2
2017-08-21T05:26:41.828Z,49.4
2017-08-21T05:27:43.600Z,49.5
2017-08-21T05:28:45.049Z,49.6
2017-08-21T05:29:47.177Z,49.3
2017-08-21T05:30:49.308Z,49.3
2017-08-21T05:31:51.437Z,49.5
2017-08-21T05:32:53.585Z,49.4
2017-08-21T05:33:55.050Z,49.4
2017-08-21T05:34:56.832Z,49.5
2017-08-21T05:35:58.624Z,49.4
2017-08-21T05:37:00.423Z,49.5
2017-08-21T05:38:02.222Z,49.4
2017-08-21T05:39:03.998Z,49.2
2017-08-21T05:40:06.134Z,49.4
2017-08-21T05:41:07.932Z,49.4
2017-08-21T05:42:10.111Z,49.5
2017-08-21T05:43:11.990Z,49.4
2017-08-21T05:44:14.128Z,49.3
2017-08-21T05:45:15.930Z,49.4
2017-08-21T05:46:17.394Z,49.4
2017-08-21T05:47:18.554Z,49.5
2017-08-21T05:48:20.685Z,49.7
2017-08-21T05:49:22.818Z,49.5
2017-08-21T05:50:24.592Z,49.4
2017-08-21T05:51:26.390Z,49.4
2017-08-21T05:52:28.168Z,49.7
2017-08-21T05:53:29.964Z,49.3
2017-08-21T05:54:31.665Z,49.6
2017-08-21T05:55:33.534Z,49.3
2017-08-21T05:56:36.270Z,49.5
2017-08-21T05:57:37.984Z,49.4
2017-08-21T05:58:39.432Z,49.3
2017-08-21T05:59:41.561Z,49.4
2017-08-21T06:00:43.362Z,49.3
2017-08-21T06:01:45.167Z,49.4
2017-08-21T06:02:46.949Z,49.3
2017-08-21T06:03:49.080Z,49.3
2017-08-21T06:04:50.882Z,49.5
2017-08-21T06:05:53.015Z,49.4
2017-08-21T06:06:54.466Z,49.3
2017-08-21T06:07:56.267Z,49.4
2017-08-21T06:08:57.734Z,49.4
2017-08-21T06:09:59.180Z,49.5
2017-08-21T06:11:00.628Z,49.1
2017-08-21T06:12:01.738Z,49.4
2017-08-21T06:13:02.850Z,49.2
2017-08-21T06:14:04.649Z,49.4
2017-08-21T06:15:06.110Z,49.4
2017-08-21T06:16:07.224Z,49.3
2017-08-21T06:17:08.697Z,49.3
2017-08-21T06:18:10.503Z,49.3
2017-08-21T06:19:12.631Z,49.5
2017-08-21T06:20:14.407Z,49.5
2017-08-21T06:21:16.541Z,49.3
2017-08-21T06:22:17.987Z,49.4
2017-08-21T06:23:19.454Z,49.4
2017-08-21T06:24:21.585Z,49.2
2017-08-21T06:25:23.590Z,49.2
2017-08-21T06:26:25.729Z,49.6
2017-08-21T06:27:27.507Z,49.3
2017-08-21T06:28:29.314Z,49.2
2017-08-21T06:29:31.455Z,49.5
2017-08-21T06:30:32.589Z,49.4
2017-08-21T06:31:34.721Z,49.3
2017-08-21T06:32:36.852Z,49.5
2017-08-21T06:33:38.982Z,49.5
2017-08-21T06:34:41.112Z,49.3
2017-08-21T06:35:42.584Z,49.5
2017-08-21T06:36:44.711Z,49.7
2017-08-21T06:37:46.516Z,49.7
2017-08-21T06:38:47.961Z,49.3
2017-08-21T06:39:49.764Z,49.9
2017-08-21T06:40:51.211Z,49.6
2017-08-21T06:41:53.011Z,49.6
2017-08-21T06:42:55.193Z,49.7
2017-08-21T06:43:56.974Z,49.5
2017-08-21T06:44:59.105Z,49.4
2017-08-21T06:46:01.239Z,49.7
2017-08-21T06:47:02.708Z,49.6
2017-08-21T06:48:04.944Z,49.6
2017-08-21T06:49:07.077Z,49.5
2017-08-21T06:50:08.857Z,49.4
2017-08-21T06:51:10.660Z,49.5
2017-08-21T06:52:12.461Z,49.3
2017-08-21T06:53:13.573Z,49.6
2017-08-21T06:54:15.707Z,49.9
2017-08-21T06:55:17.519Z,49.5
2017-08-21T06:56:19.651Z,49.7
2017-08-21T06:57:21.782Z,49.5
2017-08-21T06:58:23.584Z,49.5
2017-08-21T06:59:25.717Z,49.7
2017-08-21T07:00:27.500Z,49.4
2017-08-21T07:01:29.630Z,49.5
2017-08-21T07:02:31.434Z,49.3
2017-08-21T07:03:33.238Z,49.6
2017-08-21T07:04:35.039Z,49.3
2017-08-21T07:05:36.839Z,49.5
2017-08-21T07:06:38.977Z,49.7
2017-08-21T07:07:40.778Z,49.7
2017-08-21T07:08:42.915Z,49.5
2017-08-21T07:09:44.718Z,49.6
2017-08-21T07:10:46.495Z,49.7
2017-08-21T07:11:47.941Z,49.4
2017-08-21T07:12:49.412Z,49.5
2017-08-21T07:13:51.544Z,49.7
2017-08-21T07:14:52.667Z,49.3
2017-08-21T07:15:54.133Z,49
2017-08-21T07:16:55.609Z,49.4
2017-08-21T07:17:57.407Z,49
2017-08-21T07:18:58.871Z,49.8
2017-08-21T07:20:00.673Z,49.3
2017-08-21T07:21:02.473Z,49
2017-08-21T07:22:04.278Z,48.9
2017-08-21T07:23:05.721Z,49.7
2017-08-21T07:24:07.854Z,49.2
2017-08-21T07:25:09.322Z,49
2017-08-21T07:26:11.128Z,49.1
2017-08-21T07:27:12.907Z,49
2017-08-21T07:28:15.039Z,49.3
2017-08-21T07:29:17.236Z,49.1
2017-08-21T07:30:19.367Z,49.1
2017-08-21T07:31:20.817Z,49.3
2017-08-21T07:32:22.594Z,49.1
2017-08-21T07:33:24.733Z,49.7
2017-08-21T07:34:26.254Z,49.4
2017-08-21T07:35:28.057Z,49.1
2017-08-21T07:36:30.193Z,49.4
2017-08-21T07:37:32.003Z,49.2
2017-08-21T07:38:33.802Z,49.2
2017-08-21T07:39:35.251Z,49.1
2017-08-21T07:40:37.411Z,49.1
2017-08-21T07:41:39.531Z,49.2
2017-08-21T07:42:40.999Z,49.1
2017-08-21T07:43:42.801Z,49.2
2017-08-21T07:44:44.252Z,49.3
2017-08-21T07:45:45.717Z,49.2
2017-08-21T07:46:47.166Z,49.5
2017-08-21T07:47:48.609Z,49.3
2017-08-21T07:48:50.056Z,49.2
2017-08-21T07:49:51.516Z,49.3
2017-08-21T07:50:53.647Z,49
2017-08-21T07:51:55.451Z,49.7
2017-08-21T07:52:57.235Z,49.1
2017-08-21T07:53:59.369Z,49.4
2017-08-21T07:55:01.503Z,49.4
2017-08-21T07:56:03.639Z,49.4
2017-08-21T07:57:05.796Z,49
2017-08-21T07:58:08.250Z,49.3
2017-08-21T07:59:10.341Z,49.3
2017-08-21T08:00:12.120Z,49.5
2017-08-21T08:01:13.923Z,49.3
2017-08-21T08:02:16.059Z,49.3
2017-08-21T08:03:17.862Z,49.3
2017-08-21T08:04:18.977Z,49.4
2017-08-21T08:05:21.255Z,49.2
2017-08-21T08:06:23.210Z,49.1
2017-08-21T08:07:25.341Z,49.2
2017-08-21T08:08:27.476Z,49.3
2017-08-21T08:09:29.277Z,49.7
2017-08-21T08:10:31.411Z,49.1
2017-08-21T08:11:33.210Z,49.1
2017-08-21T08:12:34.993Z,49.1
2017-08-21T08:13:36.443Z,49.1
2017-08-21T08:14:37.908Z,49.2
2017-08-21T08:15:40.144Z,49.1
2017-08-21T08:16:42.330Z,49.1
2017-08-21T08:17:44.173Z,49.4
2017-08-21T08:18:46.301Z,49.3
2017-08-21T08:19:47.759Z,49.3
2017-08-21T08:20:50.379Z,49.5
2017-08-21T08:21:53.189Z,49.2
2017-08-21T08:22:55.617Z,49.2
2017-08-21T08:23:57.577Z,49.2
2017-08-21T08:24:59.359Z,49.2
2017-08-21T08:26:01.159Z,49.3
2017-08-21T08:27:02.605Z,48.9
2017-08-21T08:28:04.114Z,48.8
2017-08-21T08:29:06.027Z,48.9
2017-08-21T08:30:07.908Z,49.2
2017-08-21T08:31:10.328Z,48.9
2017-08-21T08:32:12.465Z,48.8
2017-08-21T08:33:14.617Z,49.3
2017-08-21T08:34:16.417Z,49.4
2017-08-21T08:35:18.199Z,49.5
2017-08-21T08:36:20.385Z,48.9
2017-08-21T08:37:22.686Z,49.3
2017-08-21T08:38:24.564Z,49.2
2017-08-21T08:39:26.699Z,49.2
2017-08-21T08:40:28.150Z,49.1
2017-08-21T08:41:29.620Z,49.2
2017-08-21T08:42:31.142Z,49.2
2017-08-21T08:43:32.712Z,49.5
2017-08-21T08:44:34.513Z,49.4
2017-08-21T08:45:35.962Z,49.3
2017-08-21T08:46:37.431Z,48.9
2017-08-21T08:47:38.886Z,48.9
2017-08-21T08:48:41.041Z,49
2017-08-21T08:49:42.981Z,49.2
2017-08-21T08:50:44.094Z,48.9
2017-08-21T08:51:45.542Z,48.8
2017-08-21T08:52:46.679Z,49.4
2017-08-21T08:53:48.126Z,49
2017-08-21T08:54:49.903Z,49.6
2017-08-21T08:55:51.701Z,49.1
2017-08-21T08:56:53.506Z,49.8
2017-08-21T08:57:54.982Z,49
2017-08-21T08:58:56.442Z,49.4
2017-08-21T08:59:57.889Z,49
2017-08-21T09:00:59.694Z,49
2017-08-21T09:02:01.475Z,49.1
2017-08-21T09:03:02.922Z,49.4
2017-08-21T09:04:04.728Z,49.1
2017-08-21T09:05:06.871Z,49.6
2017-08-21T09:06:07.984Z,49.4
2017-08-21T09:07:09.789Z,48.9
2017-08-21T09:08:11.590Z,49.6
2017-08-21T09:09:13.412Z,49.2
2017-08-21T09:10:15.547Z,49.2
2017-08-21T09:11:17.350Z,49.1
2017-08-21T09:12:19.151Z,49.2
2017-08-21T09:13:20.281Z,49.2
2017-08-21T09:14:21.730Z,49.1
2017-08-21T09:15:23.863Z,48.9
2017-08-21T09:16:25.642Z,49.1
2017-08-21T09:17:27.447Z,48.8
2017-08-21T09:18:29.232Z,49.1
2017-08-21T09:19:30.347Z,48.9
2017-08-21T09:20:31.459Z,49.2
2017-08-21T09:21:33.264Z,49
2017-08-21T09:22:35.405Z,48.9
2017-08-21T09:23:37.538Z,49.1
2017-08-21T09:24:38.981Z,49
2017-08-21T09:25:40.786Z,49.1
2017-08-21T09:26:42.918Z,49.1
2017-08-21T09:27:45.052Z,48.8
2017-08-21T09:28:46.858Z,49
2017-08-21T09:29:48.991Z,48.9
2017-08-21T09:30:51.122Z,49
2017-08-21T09:31:52.920Z,49
2017-08-21T09:32:54.464Z,48.8
2017-08-21T09:33:56.269Z,49
2017-08-21T09:34:58.053Z,48.9
2017-08-21T09:36:00.188Z,49.1
2017-08-21T09:37:01.969Z,49.1
2017-08-21T09:38:04.104Z,49.1
2017-08-21T09:39:06.238Z,49.1
2017-08-21T09:40:08.025Z,49
2017-08-21T09:41:09.498Z,48.9
2017-08-21T09:42:11.295Z,49
2017-08-21T09:43:12.743Z,49
2017-08-21T09:44:14.209Z,48.6
2017-08-21T09:45:15.660Z,48.8
2017-08-21T09:46:17.795Z,49.1
2017-08-21T09:47:19.929Z,49.1
2017-08-21T09:48:22.066Z,49.1
2017-08-21T09:49:23.511Z,49.1
2017-08-21T09:50:25.329Z,49
2017-08-21T09:51:27.463Z,49
2017-08-21T09:52:29.261Z,49.1
2017-08-21T09:53:31.063Z,48.6
2017-08-21T09:54:32.843Z,48.7
2017-08-21T09:55:34.652Z,48.7
2017-08-21T09:56:36.457Z,48.6
2017-08-21T09:57:37.906Z,48.6
2017-08-21T09:58:39.707Z,48.6
2017-08-21T09:59:41.158Z,49.1
2017-08-21T10:00:42.964Z,48.8
2017-08-21T10:01:44.412Z,48.9
2017-08-21T10:02:45.858Z,48.7
2017-08-21T10:03:47.379Z,48.7
2017-08-21T10:04:48.494Z,49
2017-08-21T10:05:49.620Z,48.7
2017-08-21T10:06:51.417Z,48.9
2017-08-21T10:07:52.887Z,48.6
2017-08-21T10:08:55.020Z,48.9
2017-08-21T10:09:56.827Z,48.5
2017-08-21T10:10:58.272Z,48.3
2017-08-21T10:12:00.405Z,48.2
2017-08-21T10:13:02.211Z,48.2
2017-08-21T10:14:04.013Z,48.3
2017-08-21T10:15:05.490Z,48.2
2017-08-21T10:16:07.286Z,48.2
2017-08-21T10:17:08.404Z,48.6
2017-08-21T10:18:10.537Z,48.3
2017-08-21T10:19:12.320Z,48.9
2017-08-21T10:20:14.126Z,49
2017-08-21T10:21:16.257Z,48.7
2017-08-21T10:22:17.726Z,48.9
2017-08-21T10:23:19.193Z,48.9
2017-08-21T10:24:21.324Z,48.6
2017-08-21T10:25:22.789Z,48.5
2017-08-21T10:26:23.928Z,48.2
2017-08-21T10:27:25.730Z,48.2
2017-08-21T10:28:27.536Z,48.2
2017-08-21T10:29:29.331Z,48.2
2017-08-21T10:30:31.134Z,48.5
2017-08-21T10:31:32.601Z,48.4
2017-08-21T10:32:34.050Z,48.3
2017-08-21T10:33:35.494Z,48.7
2017-08-21T10:34:37.636Z,48.2
2017-08-21T10:35:39.438Z,48.4
2017-08-21T10:36:40.886Z,48.6
2017-08-21T10:37:43.025Z,48.5
2017-08-21T10:38:44.826Z,48.7
2017-08-21T10:39:46.624Z,49
2017-08-21T10:40:48.097Z,48.5
2017-08-21T10:41:49.579Z,48.2
2017-08-21T10:42:51.054Z,48.4
2017-08-21T10:43:52.929Z,48.3
2017-08-21T10:44:54.732Z,48.4
2017-08-21T10:45:56.536Z,48.4
2017-08-21T10:46:58.324Z,48.5
2017-08-21T10:48:00.158Z,48.6
2017-08-21T10:49:01.978Z,48.4
2017-08-21T10:50:04.141Z,48
2017-08-21T10:51:06.042Z,48.7
2017-08-21T10:52:07.871Z,48.5
2017-08-21T10:53:10.039Z,48.3
2017-08-21T10:54:12.178Z,48.2
2017-08-21T10:55:13.987Z,48
2017-08-21T10:56:16.327Z,48
2017-08-21T10:57:18.276Z,49
2017-08-21T10:58:20.081Z,48.7
2017-08-21T10:59:21.917Z,48.3
2017-08-21T11:00:23.364Z,48.2
2017-08-21T11:01:25.165Z,48.4
2017-08-21T11:02:26.949Z,48.3
2017-08-21T11:03:28.394Z,48.2
2017-08-21T11:04:29.508Z,48.3
2017-08-21T11:05:30.975Z,48.3
2017-08-21T11:06:32.450Z,48.1
2017-08-21T11:07:33.915Z,48.4
2017-08-21T11:08:36.064Z,48.3
2017-08-21T11:09:37.845Z,48.1
2017-08-21T11:10:38.969Z,48.2
2017-08-21T11:11:40.439Z,48.1
2017-08-21T11:12:41.887Z,48.1
2017-08-21T11:13:43.335Z,48.5
2017-08-21T11:14:45.136Z,48.6
2017-08-21T11:15:46.611Z,48.1
2017-08-21T11:16:48.423Z,48.1
2017-08-21T11:17:50.223Z,48.2
2017-08-21T11:18:52.021Z,48.9
2017-08-21T11:19:53.831Z,48.2
2017-08-21T11:20:55.600Z,48.2
2017-08-21T11:21:57.411Z,48.5
2017-08-21T11:22:58.525Z,48.2
2017-08-21T11:23:59.976Z,48.3
2017-08-21T11:25:02.112Z,48.3
2017-08-21T11:26:03.579Z,48.6
2017-08-21T11:27:05.378Z,48.6
2017-08-21T11:28:06.509Z,48.2
2017-08-21T11:29:07.639Z,48.9
2017-08-21T11:30:09.417Z,48.4
2017-08-21T11:31:11.216Z,48.2
2017-08-21T11:32:12.665Z,48.2
2017-08-21T11:33:13.782Z,48.3
2017-08-21T11:34:15.251Z,48.4
2017-08-21T11:35:17.381Z,48.2
2017-08-21T11:36:18.497Z,48.3
2017-08-21T11:37:19.637Z,48
2017-08-21T11:38:21.109Z,48.5
2017-08-21T11:39:23.237Z,48.2
2017-08-21T11:40:25.058Z,48.1
2017-08-21T11:41:26.833Z,48.2
2017-08-21T11:42:28.277Z,48.9
2017-08-21T11:43:29.421Z,48.2
2017-08-21T11:44:30.531Z,48.4
2017-08-21T11:45:32.310Z,48.6
2017-08-21T11:46:34.111Z,48.4
2017-08-21T11:47:35.225Z,48.2
2017-08-21T11:48:36.691Z,48.2
2017-08-21T11:49:38.822Z,48.2
2017-08-21T11:50:40.274Z,48.3
2017-08-21T11:51:42.074Z,48.3
2017-08-21T11:52:43.548Z,48.3
2017-08-21T11:53:45.350Z,47.9
2017-08-21T11:54:47.150Z,48.4
2017-08-21T11:55:48.593Z,48.5
2017-08-21T11:56:50.043Z,48.6
2017-08-21T11:57:52.173Z,48
2017-08-21T11:58:54.307Z,48
2017-08-21T11:59:56.104Z,48.3
2017-08-21T12:00:58.234Z,48.5
2017-08-21T12:01:59.681Z,48.5
2017-08-21T12:03:01.485Z,48.1
2017-08-21T12:04:03.283Z,47.9
2017-08-21T12:05:05.414Z,48.3
2017-08-21T12:06:07.191Z,48.4
2017-08-21T12:07:08.992Z,48.3
2017-08-21T12:08:10.435Z,48
2017-08-21T12:09:11.882Z,48.1
2017-08-21T12:10:13.684Z,48.2
2017-08-21T12:11:15.820Z,48.3
2017-08-21T12:12:17.629Z,48.3
2017-08-21T12:13:19.431Z,48.3
2017-08-21T12:14:20.874Z,48.1
2017-08-21T12:15:22.318Z,48
2017-08-21T12:16:24.118Z,48
2017-08-21T12:17:25.898Z,47.9
2017-08-21T12:18:27.341Z,48.3
2017-08-21T12:19:29.123Z,48
2017-08-21T12:20:31.254Z,48.1
2017-08-21T12:21:33.051Z,47.8
2017-08-21T12:22:34.501Z,48.2
2017-08-21T12:23:35.617Z,48.1
2017-08-21T12:24:37.413Z,48
2017-08-21T12:25:39.545Z,48
2017-08-21T12:26:41.683Z,48
2017-08-21T12:27:43.809Z,48.3
2017-08-21T12:28:45.608Z,48
2017-08-21T12:29:46.721Z,48.4
2017-08-21T12:30:48.164Z,48
2017-08-21T12:31:49.950Z,48
2017-08-21T12:32:51.730Z,47.7
2017-08-21T12:33:53.195Z,47.5
2017-08-21T12:34:55.327Z,48
2017-08-21T12:35:57.465Z,47.7
2017-08-21T12:36:58.906Z,47.9
2017-08-21T12:38:00.352Z,47.7
2017-08-21T12:39:02.131Z,48.4
2017-08-21T12:40:03.913Z,48
2017-08-21T12:41:06.040Z,48.1
2017-08-21T12:42:08.173Z,48.3
2017-08-21T12:43:10.301Z,48.2
2017-08-21T12:44:11.769Z,48
2017-08-21T12:45:13.214Z,48.1
2017-08-21T12:46:14.676Z,48.1
2017-08-21T12:47:16.806Z,48
2017-08-21T12:48:18.604Z,48.2
2017-08-21T12:49:20.737Z,47.9
2017-08-21T12:50:22.206Z,48.2
2017-08-21T12:51:23.651Z,48
2017-08-21T12:52:25.096Z,48.1
2017-08-21T12:53:27.230Z,48.2
2017-08-21T12:54:29.013Z,48.4
2017-08-21T12:55:31.145Z,48.3
2017-08-21T12:56:33.277Z,48.4
2017-08-21T12:57:34.723Z,48.3
2017-08-21T12:58:36.853Z,47.8
2017-08-21T12:59:38.324Z,47.9
2017-08-21T13:00:39.793Z,48
2017-08-21T13:01:41.594Z,48.2
2017-08-21T13:02:43.394Z,48
2017-08-21T13:03:45.196Z,48.1
2017-08-21T13:04:47.002Z,48.1
2017-08-21T13:05:48.115Z,48.1
2017-08-21T13:06:50.247Z,48
2017-08-21T13:07:52.026Z,48.1
2017-08-21T13:08:54.210Z,48.1
2017-08-21T13:09:55.989Z,48.1
2017-08-21T13:10:57.440Z,48
2017-08-21T13:11:59.240Z,47.7
2017-08-21T13:13:00.702Z,47.5
2017-08-21T13:14:02.831Z,48.1
2017-08-21T13:15:04.275Z,47.7
2017-08-21T13:16:06.406Z,48
2017-08-21T13:17:08.217Z,47.7
2017-08-21T13:18:10.022Z,47.9
2017-08-21T13:19:12.154Z,47.9
2017-08-21T13:20:14.285Z,47.8
2017-08-21T13:21:16.416Z,47.8
2017-08-21T13:22:18.548Z,47.8
2017-08-21T13:23:20.681Z,47.7
2017-08-21T13:24:22.457Z,48.1
2017-08-21T13:25:24.237Z,48
2017-08-21T13:26:26.367Z,47.4
2017-08-21T13:27:28.166Z,48
2017-08-21T13:28:29.633Z,48
2017-08-21T13:29:31.763Z,48
2017-08-21T13:30:32.884Z,48.2
2017-08-21T13:31:35.016Z,48.3
2017-08-21T13:32:36.817Z,47.8
2017-08-21T13:33:38.951Z,48.2
2017-08-21T13:34:40.746Z,48.1
2017-08-21T13:35:42.876Z,48.1
2017-08-21T13:36:44.673Z,47.8
2017-08-21T13:37:45.790Z,47.7
2017-08-21T13:38:47.918Z,47.7
2017-08-21T13:39:49.390Z,47.7
2017-08-21T13:40:51.168Z,47.9
2017-08-21T13:41:52.968Z,47.9
2017-08-21T13:42:54.767Z,48.3
2017-08-21T13:43:56.218Z,47.8
2017-08-21T13:44:57.998Z,47.8
2017-08-21T13:45:59.113Z,47.9
2017-08-21T13:47:01.246Z,47.8
2017-08-21T13:48:03.376Z,47.7
2017-08-21T13:49:04.582Z,47.7